Terminal Aerodrome Forecast
Issued by NWS

Home | Current Version | Previous Version | Text Only | Print | Product List | Glossary On
Versions: 1 2 3 4 5 6 7 8 9 10 11 12 13 14 15
000
FTUS44 KMAF 200539
TAFHOB
TAF
KHOB 200539Z 2006/2106 13017G25KT P6SM SCT040 BKN250
     FM201500 13025G35KT P6SM BKN040 BKN100 PROB30 2021/2103
      13035G45KT 5SM -TSRA BLDU OVC030CB=

USA.gov is the U.S. government's official web portal to all federal, state and local government web resources and services.